Time;durP1;ratioP1;P1;durP2;ratioP2;P2;SDS_P1;SDS_P2;PMS_P1;PMS_P2;Temp;Humidity;BMP_temperature;BMP_pressure;BME280_temperature;BME280_humidity;BME280_pressure;Samples;Min_cycle;Max_cycle;Signal;HPM_P1;HPM_P2
2022/10/05 00:00:30;;;;;;;8.35;2.83;;;16.80;91.60;;;;;;5092853;28;20419;-69
2022/10/05 00:02:56;;;;;;;8.98;2.40;;;16.80;91.60;;;;;;5092852;28;20028;-69
2022/10/05 00:05:33;;;;;;;7.53;2.35;;;16.80;91.70;;;;;;5093382;28;20040;-69
2022/10/05 00:08:20;;;;;;;8.45;2.60;;;16.80;91.80;;;;;;5096856;28;20016;-69
2022/10/05 00:10:46;;;;;;;5.82;2.00;;;16.80;91.70;;;;;;5096913;28;20016;-69
2022/10/05 00:13:20;;;;;;;6.05;2.10;;;16.80;91.70;;;;;;5096787;28;20032;-69
2022/10/05 00:15:47;;;;;;;9.85;2.22;;;16.80;91.60;;;;;;5096829;28;20482;-69
2022/10/05 00:18:18;;;;;;;16.88;2.65;;;16.80;91.50;;;;;;5096846;28;20036;-69
2022/10/05 00:20:45;;;;;;;7.13;2.15;;;16.90;91.50;;;;;;5096933;28;20020;-69
2022/10/05 00:23:20;;;;;;;5.15;2.60;;;16.90;91.40;;;;;;5096692;28;20091;-69
2022/10/05 00:25:46;;;;;;;6.95;2.55;;;16.90;91.40;;;;;;5096703;28;20103;-69
2022/10/05 00:28:28;;;;;;;5.75;2.35;;;16.90;91.50;;;;;;5096586;28;20056;-69
2022/10/05 00:30:56;;;;;;;9.27;2.33;;;16.90;91.60;;;;;;5096588;28;20051;-69
2022/10/05 00:33:21;;;;;;;5.22;2.25;;;16.90;91.60;;;;;;5096428;28;20073;-69
2022/10/05 00:35:47;;;;;;;6.43;2.30;;;16.90;91.50;;;;;;5096021;28;20107;-69
2022/10/05 00:38:13;;;;;;;5.93;2.22;;;16.90;91.40;;;;;;5096101;28;20028;-69
2022/10/05 00:40:57;;;;;;;5.18;2.13;;;16.90;91.40;;;;;;5095901;28;20028;-69
2022/10/05 00:43:38;;;;;;;11.02;2.20;;;16.90;91.30;;;;;;5096275;28;20070;-69
2022/10/05 00:46:16;;;;;;;6.57;2.03;;;16.90;91.60;;;;;;5096383;28;20024;-69
2022/10/05 00:49:14;;;;;;;7.25;2.25;;;16.90;91.30;;;;;;5096135;28;20028;-69
2022/10/05 00:51:47;;;;;;;3.90;2.05;;;16.90;91.30;;;;;;5076815;28;20040;-69
2022/10/05 00:54:24;;;;;;;7.68;2.00;;;16.90;91.40;;;;;;5096099;28;20056;-69
2022/10/05 00:56:59;;;;;;;3.92;2.03;;;16.90;91.40;;;;;;5096029;28;20470;-69
2022/10/05 00:59:43;;;;;;;7.80;2.35;;;16.90;91.40;;;;;;5092883;28;20024;-69
2022/10/05 01:02:15;;;;;;;7.55;2.00;;;16.90;91.40;;;;;;5093261;28;20055;-70
2022/10/05 01:04:58;;;;;;;4.38;2.10;;;16.90;91.30;;;;;;5093845;28;20048;-69
2022/10/05 01:07:23;;;;;;;8.85;2.10;;;16.90;91.20;;;;;;5095652;28;20099;-69
2022/10/05 01:10:04;;;;;;;5.82;1.90;;;16.90;91.20;;;;;;5095524;28;20055;-69
2022/10/05 01:12:56;;;;;;;7.57;2.03;;;16.90;91.20;;;;;;5095157;28;20545;-69
2022/10/05 01:15:38;;;;;;;8.02;2.50;;;16.80;91.20;;;;;;5095485;28;20020;-69
2022/10/05 01:18:16;;;;;;;16.40;2.63;;;16.80;91.10;;;;;;5095598;28;20469;-69
2022/10/05 01:20:42;;;;;;;4.60;1.90;;;16.80;91.10;;;;;;5095585;28;20032;-69
2022/10/05 01:23:34;;;;;;;3.83;2.13;;;16.70;90.90;;;;;;5095571;28;20469;-69
2022/10/05 01:26:24;;;;;;;7.25;2.22;;;16.70;91.00;;;;;;5095322;28;20408;-69
2022/10/05 01:29:06;;;;;;;6.03;2.20;;;16.70;91.20;;;;;;5094921;28;20424;-69
2022/10/05 01:32:10;;;;;;;6.57;2.20;;;16.60;91.20;;;;;;5095490;28;20107;-69
2022/10/05 01:34:52;;;;;;;5.20;1.95;;;16.60;91.20;;;;;;5095508;28;20189;-69
2022/10/05 01:37:39;;;;;;;5.63;2.17;;;16.60;91.20;;;;;;5094568;28;20051;-69
2022/10/05 01:40:33;;;;;;;6.75;2.10;;;16.60;91.20;;;;;;5095271;28;20024;-69
2022/10/05 01:43:18;;;;;;;4.60;2.00;;;16.50;91.30;;;;;;5094453;28;20036;-69
2022/10/05 01:46:10;;;;;;;3.78;2.00;;;16.50;91.30;;;;;;5095240;28;20043;-69
2022/10/05 01:49:05;;;;;;;10.23;3.00;;;16.50;91.30;;;;;;5095263;28;20020;-69
2022/10/05 01:51:41;;;;;;;8.05;2.40;;;16.40;91.40;;;;;;5094957;28;20048;-69
2022/10/05 01:54:19;;;;;;;4.65;2.10;;;16.40;91.60;;;;;;5095072;28;20062;-69
2022/10/05 01:56:50;;;;;;;8.95;2.25;;;16.40;91.40;;;;;;5094705;28;20025;-69
2022/10/05 01:59:58;;;;;;;4.35;2.55;;;16.40;91.50;;;;;;5095100;28;20110;-69
2022/10/05 02:02:27;;;;;;;8.80;2.30;;;16.30;91.40;;;;;;5095084;28;20538;-69
2022/10/05 02:05:13;;;;;;;4.20;2.20;;;16.30;91.30;;;;;;5094790;28;20385;-69
2022/10/05 02:07:52;;;;;;;7.80;2.38;;;16.30;91.40;;;;;;5090890;28;20043;-66
2022/10/05 02:10:18;;;;;;;5.03;2.35;;;16.30;91.50;;;;;;5094763;28;20023;-69
2022/10/05 02:12:46;;;;;;;10.18;2.50;;;16.20;91.60;;;;;;5094795;28;20024;-69
2022/10/05 02:15:24;;;;;;;7.55;2.30;;;16.20;91.60;;;;;;5094187;28;20028;-69
2022/10/05 02:17:54;;;;;;;6.00;1.98;;;16.20;91.60;;;;;;5094300;28;20423;-69
2022/10/05 02:20:27;;;;;;;7.60;2.20;;;16.20;91.50;;;;;;5094508;28;20522;-69
2022/10/05 02:22:58;;;;;;;11.00;2.47;;;16.20;91.50;;;;;;5094252;28;20035;-69
2022/10/05 02:25:31;;;;;;;9.50;2.30;;;16.10;91.40;;;;;;5093990;28;20386;-69
2022/10/05 02:28:13;;;;;;;7.53;2.00;;;16.10;91.60;;;;;;5093526;28;20375;-69
2022/10/05 02:30:51;;;;;;;6.70;2.17;;;16.00;91.70;;;;;;5093929;28;20066;-69
2022/10/05 02:33:27;;;;;;;5.75;2.10;;;16.00;91.80;;;;;;5094026;28;20099;-69
2022/10/05 02:35:53;;;;;;;8.05;2.00;;;16.00;91.90;;;;;;5094100;28;20036;-68
2022/10/05 02:38:32;;;;;;;8.43;2.50;;;15.90;91.90;;;;;;5094111;28;20028;-69
2022/10/05 02:41:13;;;;;;;8.30;2.55;;;15.90;92.00;;;;;;5094246;28;20025;-69
2022/10/05 02:43:52;;;;;;;3.88;1.98;;;16.00;92.00;;;;;;5094023;28;20391;-69
2022/10/05 02:46:44;;;;;;;7.47;2.28;;;15.90;91.90;;;;;;5093554;28;20053;-69
2022/10/05 02:49:44;;;;;;;6.65;2.25;;;15.90;91.90;;;;;;5093678;28;20020;-69
2022/10/05 02:52:33;;;;;;;3.50;1.98;;;15.90;91.90;;;;;;5094007;28;20099;-69
2022/10/05 02:55:02;;;;;;;3.53;2.05;;;15.90;92.00;;;;;;5093918;28;20102;-69
2022/10/05 02:57:34;;;;;;;9.38;2.40;;;15.90;91.90;;;;;;5092911;28;20442;-69
2022/10/05 03:00:13;;;;;;;7.38;2.40;;;15.90;91.90;;;;;;5093809;28;20062;-69
2022/10/05 03:02:56;;;;;;;3.95;2.00;;;15.90;91.90;;;;;;5093364;28;20024;-69
2022/10/05 03:05:37;;;;;;;5.32;1.88;;;15.90;92.00;;;;;;5093859;28;20378;-69
2022/10/05 03:08:25;;;;;;;6.20;2.15;;;15.90;92.00;;;;;;5093847;28;20024;-69
2022/10/05 03:11:17;;;;;;;5.88;2.50;;;15.90;92.00;;;;;;5093561;28;20028;-69
2022/10/05 03:14:01;;;;;;;6.97;2.15;;;15.90;92.00;;;;;;5093404;28;20020;-69
2022/10/05 03:16:26;;;;;;;5.80;2.25;;;15.90;91.90;;;;;;5093262;28;20465;-71
2022/10/05 03:19:01;;;;;;;5.68;2.45;;;15.80;91.70;;;;;;5093516;28;20031;-69
2022/10/05 03:21:42;;;;;;;3.60;1.88;;;15.80;91.80;;;;;;5093551;28;20032;-69
2022/10/05 03:24:26;;;;;;;3.70;2.08;;;15.80;91.90;;;;;;5093440;28;20088;-69
2022/10/05 03:26:52;;;;;;;4.72;2.20;;;15.80;91.80;;;;;;5093483;28;20034;-69
2022/10/05 03:29:42;;;;;;;8.93;2.00;;;15.80;91.80;;;;;;5093116;28;20059;-70
2022/10/05 03:32:13;;;;;;;4.85;2.17;;;15.80;91.90;;;;;;5092824;28;20035;-69
2022/10/05 03:35:09;;;;;;;5.82;2.38;;;15.70;91.80;;;;;;5092914;28;20020;-69
2022/10/05 03:38:01;;;;;;;12.00;2.20;;;15.70;91.70;;;;;;5093169;28;20016;-69
2022/10/05 03:40:56;;;;;;;6.15;2.42;;;15.70;91.80;;;;;;5093036;28;20415;-69
2022/10/05 03:43:28;;;;;;;6.35;2.30;;;15.70;91.80;;;;;;5092963;28;20024;-69
2022/10/05 03:46:10;;;;;;;9.10;2.60;;;15.60;91.80;;;;;;5093128;28;20020;-69
2022/10/05 03:48:42;;;;;;;5.38;2.00;;;15.60;91.90;;;;;;5093057;28;20024;-69
2022/10/05 03:51:30;;;;;;;7.82;2.40;;;15.60;91.90;;;;;;5093272;28;20103;-69
2022/10/05 03:54:09;;;;;;;6.40;2.25;;;15.60;92.00;;;;;;5092911;28;20115;-69
2022/10/05 03:56:42;;;;;;;6.20;2.10;;;15.60;92.10;;;;;;5092981;28;20389;-68
2022/10/05 03:59:17;;;;;;;7.32;2.30;;;15.60;92.10;;;;;;5092932;28;20529;-69
2022/10/05 04:02:10;;;;;;;3.65;1.98;;;15.60;92.20;;;;;;5092722;28;20028;-69
2022/10/05 04:04:45;;;;;;;4.28;2.67;;;15.60;92.10;;;;;;5092957;28;20032;-69
2022/10/05 04:07:28;;;;;;;9.35;2.22;;;15.60;92.00;;;;;;5092867;28;20024;-68
2022/10/05 04:09:56;;;;;;;10.70;2.30;;;15.60;92.10;;;;;;5092861;28;20032;-69
2022/10/05 04:12:36;;;;;;;10.07;2.10;;;15.60;92.00;;;;;;5093038;28;20109;-71
2022/10/05 04:15:08;;;;;;;7.53;2.55;;;15.60;91.90;;;;;;5093023;28;20103;-69
2022/10/05 04:17:44;;;;;;;11.13;2.28;;;15.60;91.70;;;;;;5092615;28;20432;-69
2022/10/05 04:20:16;;;;;;;9.75;2.45;;;15.60;91.50;;;;;;5092730;28;20047;-69
2022/10/05 04:23:19;;;;;;;7.90;2.38;;;15.50;91.40;;;;;;5092406;28;20478;-70
2022/10/05 04:25:50;;;;;;;10.95;2.60;;;15.40;91.40;;;;;;5086185;28;20078;-69
2022/10/05 04:28:37;;;;;;;10.98;2.38;;;15.40;91.30;;;;;;5092697;28;20052;-69
2022/10/05 04:31:04;;;;;;;6.15;2.03;;;15.40;91.40;;;;;;5092612;28;20024;-71
2022/10/05 04:33:31;;;;;;;8.23;2.50;;;15.30;91.30;;;;;;5091292;28;20424;-70
2022/10/05 04:36:14;;;;;;;6.97;1.92;;;15.30;91.30;;;;;;5092758;28;20024;-69
2022/10/05 04:39:27;;;;;;;4.20;2.10;;;15.30;91.30;;;;;;5092718;28;20031;-69
2022/10/05 04:41:56;;;;;;;6.30;2.08;;;15.20;91.20;;;;;;5050106;28;20125;-70
2022/10/05 04:45:01;;;;;;;6.28;1.83;;;15.20;91.30;;;;;;5079584;28;20397;-70
2022/10/05 04:47:57;;;;;;;5.18;1.95;;;15.10;91.30;;;;;;5092526;28;20048;-69
2022/10/05 04:50:37;;;;;;;5.97;2.13;;;15.10;91.30;;;;;;5092634;28;20025;-69
2022/10/05 04:53:41;;;;;;;4.15;1.90;;;15.10;91.40;;;;;;5095891;28;20101;-70
2022/10/05 04:56:12;;;;;;;7.00;2.25;;;15.00;91.50;;;;;;5095750;28;20462;-69
2022/10/05 04:59:02;;;;;;;7.28;2.28;;;15.00;91.50;;;;;;5096095;28;20036;-70
2022/10/05 05:01:43;;;;;;;5.80;2.22;;;15.00;91.60;;;;;;5095868;28;20489;-69
2022/10/05 05:04:27;;;;;;;8.63;1.90;;;15.00;91.70;;;;;;5096081;28;20036;-69
2022/10/05 05:07:05;;;;;;;8.38;2.97;;;15.00;91.80;;;;;;5095762;28;20481;-69
2022/10/05 05:09:59;;;;;;;4.78;2.22;;;15.00;91.70;;;;;;5094331;28;20388;-69
2022/10/05 05:12:45;;;;;;;9.32;3.15;;;15.00;91.80;;;;;;5095861;28;20550;-69
2022/10/05 05:15:22;;;;;;;11.18;2.80;;;15.00;91.90;;;;;;5095640;28;20024;-69
2022/10/05 05:18:24;;;;;;;6.90;2.72;;;15.00;92.00;;;;;;5095562;28;20081;-69
2022/10/05 05:20:57;;;;;;;16.58;3.83;;;15.00;91.90;;;;;;5095767;28;20496;-69
2022/10/05 05:23:40;;;;;;;11.05;3.80;;;15.00;91.80;;;;;;5095578;28;20401;-69
2022/10/05 05:26:21;;;;;;;15.27;4.18;;;15.00;91.80;;;;;;5095389;28;20024;-69
2022/10/05 05:29:01;;;;;;;20.85;4.25;;;15.00;91.70;;;;;;5095480;28;20031;-69
2022/10/05 05:31:35;;;;;;;20.80;3.50;;;14.90;91.70;;;;;;5095116;28;20095;-69
2022/10/05 05:34:26;;;;;;;19.30;4.55;;;14.90;91.80;;;;;;5095393;28;20031;-70
2022/10/05 05:37:00;;;;;;;19.00;4.50;;;14.90;91.70;;;;;;5095470;28;20050;-69
2022/10/05 05:39:33;;;;;;;18.38;4.20;;;14.90;91.90;;;;;;5095156;28;20082;-69
2022/10/05 05:42:21;;;;;;;15.45;4.28;;;14.90;91.90;;;;;;5094939;28;20024;-69
2022/10/05 05:44:58;;;;;;;29.15;5.05;;;14.90;92.00;;;;;;5094539;28;20131;-69
2022/10/05 05:47:34;;;;;;;22.88;4.80;;;14.90;92.00;;;;;;5095069;28;20374;-69
2022/10/05 05:50:23;;;;;;;19.02;5.40;;;14.90;92.00;;;;;;5094875;28;20047;-68
2022/10/05 05:52:57;;;;;;;18.90;5.22;;;14.90;92.10;;;;;;5095066;28;20394;-68
2022/10/05 05:55:27;;;;;;;22.80;5.88;;;14.90;92.10;;;;;;5095208;28;20555;-69
2022/10/05 05:58:16;;;;;;;21.38;5.70;;;15.00;92.10;;;;;;5094856;28;20466;-69
2022/10/05 06:01:08;;;;;;;19.88;5.03;;;15.00;92.20;;;;;;5088876;28;20516;-69
2022/10/05 06:03:49;;;;;;;23.90;4.80;;;15.00;92.20;;;;;;5092328;28;20024;-69
2022/10/05 06:06:16;;;;;;;23.98;4.60;;;15.00;92.30;;;;;;5094467;28;20521;-69
2022/10/05 06:08:56;;;;;;;24.58;4.60;;;15.00;92.30;;;;;;5094872;28;20508;-69
2022/10/05 06:11:31;;;;;;;19.17;4.10;;;15.10;92.30;;;;;;5094306;28;20386;-68
2022/10/05 06:14:03;;;;;;;13.55;3.78;;;15.10;92.40;;;;;;5094340;28;20054;-68
2022/10/05 06:17:05;;;;;;;14.73;3.50;;;15.20;92.50;;;;;;5094824;28;20036;-69
2022/10/05 06:19:33;;;;;;;14.98;4.03;;;15.20;92.40;;;;;;5070535;28;20281;-69
2022/10/05 06:22:21;;;;;;;14.32;3.67;;;15.20;92.50;;;;;;5093840;28;20051;-69
2022/10/05 06:25:10;;;;;;;11.55;3.40;;;15.30;92.50;;;;;;5094074;28;20047;-69
2022/10/05 06:28:09;;;;;;;13.40;3.55;;;15.30;92.50;;;;;;5093789;28;20027;-68
2022/10/05 06:30:56;;;;;;;14.65;3.35;;;15.40;92.50;;;;;;5094302;28;20381;-69
2022/10/05 06:33:42;;;;;;;14.32;3.15;;;15.50;92.50;;;;;;5066380;28;20489;-70
2022/10/05 06:36:22;;;;;;;9.38;3.30;;;15.50;92.60;;;;;;5071763;28;20127;-69
2022/10/05 06:38:59;;;;;;;10.93;3.33;;;15.50;92.70;;;;;;5073614;28;20021;-69
2022/10/05 06:41:53;;;;;;;8.45;3.55;;;15.60;92.80;;;;;;5073429;28;20389;-69
2022/10/05 06:44:24;;;;;;;16.35;3.13;;;15.60;92.80;;;;;;5073137;28;20497;-69
2022/10/05 06:46:56;;;;;;;9.70;3.30;;;15.70;92.90;;;;;;5073234;28;20100;-69
2022/10/05 06:49:32;;;;;;;8.77;3.08;;;15.70;92.80;;;;;;5072961;28;20036;-69
2022/10/05 06:52:33;;;;;;;10.98;3.03;;;15.80;92.70;;;;;;5073294;28;20040;-70
2022/10/05 06:55:28;;;;;;;9.48;3.13;;;15.90;92.70;;;;;;5072783;28;20505;-70
2022/10/05 06:58:38;;;;;;;8.60;2.90;;;15.90;92.70;;;;;;5072967;28;20032;-69
2022/10/05 07:01:18;;;;;;;10.65;3.50;;;16.00;92.70;;;;;;5072588;28;20086;-70
2022/10/05 07:04:08;;;;;;;15.50;3.10;;;16.00;92.60;;;;;;5073011;28;20020;-69
2022/10/05 07:07:00;;;;;;;8.82;2.90;;;16.10;92.60;;;;;;5073130;28;20110;-71
2022/10/05 07:09:49;;;;;;;11.00;3.22;;;16.10;92.50;;;;;;5073328;28;20016;-69
2022/10/05 07:12:43;;;;;;;10.00;2.80;;;16.10;92.50;;;;;;5072882;28;20142;-70
2022/10/05 07:15:25;;;;;;;9.77;2.92;;;16.10;92.50;;;;;;5072737;28;20390;-69
2022/10/05 07:17:59;;;;;;;10.02;3.00;;;16.20;92.50;;;;;;5073260;28;20024;-69
2022/10/05 07:20:45;;;;;;;12.18;3.75;;;16.20;92.60;;;;;;5072780;28;20497;-70
2022/10/05 07:23:23;;;;;;;9.23;2.95;;;16.20;92.60;;;;;;5072783;28;20051;-70
2022/10/05 07:26:13;;;;;;;5.78;2.78;;;16.30;92.50;;;;;;5072970;28;20036;-70
2022/10/05 07:29:07;;;;;;;7.15;2.30;;;16.40;92.30;;;;;;5073288;28;20024;-69
2022/10/05 07:31:43;;;;;;;8.40;2.97;;;16.50;92.10;;;;;;5073159;28;20029;-70
2022/10/05 07:34:24;;;;;;;15.05;2.40;;;16.60;91.80;;;;;;5073003;28;20023;-69
2022/10/05 07:40:07;;;;;;;11.95;2.80;;;16.70;91.60;;;;;;5072941;28;20077;-70
2022/10/05 07:42:51;;;;;;;7.60;2.83;;;16.70;91.70;;;;;;5073027;28;20025;-69
2022/10/05 07:45:32;;;;;;;10.50;3.30;;;16.80;91.80;;;;;;5072824;28;20044;-69
2022/10/05 07:48:19;;;;;;;8.60;2.97;;;16.80;91.80;;;;;;5072918;28;20107;-69
2022/10/05 07:50:58;;;;;;;6.78;2.33;;;16.80;91.80;;;;;;5072671;28;20121;-69
2022/10/05 07:53:46;;;;;;;10.00;2.67;;;16.80;91.60;;;;;;5072915;28;20028;-70
2022/10/05 07:56:20;;;;;;;13.00;2.88;;;16.90;91.50;;;;;;5072693;28;20402;-69
2022/10/05 07:58:53;;;;;;;9.23;2.95;;;16.90;91.40;;;;;;5072794;28;20020;-69
2022/10/05 08:01:25;;;;;;;10.45;3.08;;;16.90;91.50;;;;;;5072987;28;20016;-69
2022/10/05 08:03:59;;;;;;;12.88;3.83;;;16.90;91.50;;;;;;5072627;28;20024;-69
2022/10/05 08:07:00;;;;;;;8.23;2.30;;;17.00;91.60;;;;;;5072626;28;20040;-70
2022/10/05 08:09:38;;;;;;;8.02;2.80;;;17.00;91.60;;;;;;5072198;28;20120;-70
2022/10/05 08:12:30;;;;;;;10.88;2.75;;;17.10;91.50;;;;;;5072526;28;20032;-70
2022/10/05 08:15:13;;;;;;;9.10;2.53;;;17.10;91.50;;;;;;5069764;28;20464;-70
2022/10/05 08:17:59;;;;;;;5.43;2.45;;;17.10;91.40;;;;;;5072586;28;20030;-69
2022/10/05 08:20:39;;;;;;;5.47;2.60;;;17.20;91.30;;;;;;5072683;28;20103;-70
2022/10/05 08:23:24;;;;;;;9.10;2.67;;;17.30;91.30;;;;;;5072553;28;20016;-70
2022/10/05 08:26:27;;;;;;;7.88;2.47;;;17.30;91.20;;;;;;5072694;28;20437;-69
2022/10/05 08:28:55;;;;;;;;;;;17.30;91.10;;;;;;5076999;28;20029;-70
2022/10/05 08:31:34;;;;;;;7.25;2.40;;;17.40;91.00;;;;;;5075413;28;19904;-69
2022/10/05 08:34:20;;;;;;;8.52;2.75;;;17.40;90.90;;;;;;5076130;28;20024;-70
2022/10/05 08:37:16;;;;;;;6.88;2.53;;;17.40;90.80;;;;;;5076024;28;20485;-70
2022/10/05 08:40:20;;;;;;;4.95;2.30;;;17.50;90.80;;;;;;5076386;28;20378;-69
2022/10/05 08:43:08;;;;;;;4.18;2.17;;;17.50;90.70;;;;;;5075822;28;20052;-69
2022/10/05 08:46:13;;;;;;;5.60;1.95;;;17.60;90.70;;;;;;5075969;28;20065;-70
2022/10/05 08:49:21;;;;;;;4.32;2.00;;;17.70;90.60;;;;;;5076392;28;20020;-70
2022/10/05 08:51:58;;;;;;;9.55;1.60;;;17.70;90.50;;;;;;5075953;28;20400;-70
2022/10/05 08:54:39;;;;;;;10.43;2.00;;;17.80;90.50;;;;;;5075380;28;20076;-70
2022/10/05 08:57:32;;;;;;;3.88;1.80;;;17.80;90.50;;;;;;5076052;28;20489;-70
2022/10/05 09:00:18;;;;;;;7.07;2.35;;;17.90;90.40;;;;;;5075958;28;20060;-69
2022/10/05 09:02:55;;;;;;;7.53;2.30;;;17.90;90.20;;;;;;5075216;28;20075;-70
2022/10/05 09:05:58;;;;;;;7.10;1.70;;;18.00;90.00;;;;;;5075427;28;20049;-70
2022/10/05 09:08:31;;;;;;;6.82;1.85;;;18.00;90.10;;;;;;5075543;28;20042;-69
2022/10/05 09:11:05;;;;;;;6.53;2.00;;;18.10;90.00;;;;;;5075507;28;20016;-70
2022/10/05 09:13:33;;;;;;;4.65;2.00;;;18.10;90.00;;;;;;5075482;28;20117;-69
2022/10/05 09:16:25;;;;;;;6.53;1.85;;;18.20;89.60;;;;;;5075738;28;20017;-69
2022/10/05 09:19:36;;;;;;;6.97;2.07;;;18.30;89.20;;;;;;5075677;28;20036;-70
2022/10/05 09:22:35;;;;;;;7.90;1.90;;;18.30;89.10;;;;;;5075238;28;20029;-70
2022/10/05 09:25:22;;;;;;;4.72;1.90;;;18.40;89.90;;;;;;5075257;28;20032;-69
2022/10/05 09:27:53;;;;;;;12.57;2.17;;;18.50;89.50;;;;;;5075291;28;20033;-69
2022/10/05 09:31:03;;;;;;;8.88;2.22;;;18.60;89.10;;;;;;5075468;28;20524;-69
2022/10/05 09:33:29;;;;;;;9.82;1.90;;;18.70;88.80;;;;;;5073733;28;20071;-69
2022/10/05 09:36:30;;;;;;;5.63;1.85;;;18.70;88.40;;;;;;5075103;28;20059;-69
2022/10/05 09:38:59;;;;;;;7.43;1.92;;;18.80;88.50;;;;;;5074895;28;20107;-70
2022/10/05 09:41:33;;;;;;;12.02;2.13;;;18.80;88.00;;;;;;5075239;28;20033;-70
2022/10/05 09:44:14;;;;;;;4.43;2.03;;;18.90;88.30;;;;;;5075219;28;20393;-69
2022/10/05 09:47:01;;;;;;;7.85;2.15;;;19.00;88.70;;;;;;5074912;28;20490;-70
2022/10/05 09:50:03;;;;;;;6.35;2.05;;;19.10;89.00;;;;;;5074787;28;20024;-69
2022/10/05 09:52:41;;;;;;;;;;;19.20;88.80;;;;;;5075305;28;20429;-69
2022/10/05 09:55:48;;;;;;;14.35;1.95;;;19.30;89.10;;;;;;5074805;28;19917;-69
2022/10/05 09:58:28;;;;;;;11.05;2.30;;;19.40;89.00;;;;;;5072561;28;20059;-70
2022/10/05 10:01:02;;;;;;;10.15;2.00;;;19.50;88.80;;;;;;5072313;28;20040;-70
2022/10/05 10:03:49;;;;;;;11.75;4.70;;;19.70;88.40;;;;;;5073608;28;20959;-70
2022/10/05 10:06:53;;;;;;;6.65;2.45;;;19.80;88.30;;;;;;5074716;28;20104;-70
2022/10/05 10:09:52;;;;;;;6.93;1.85;;;19.80;87.90;;;;;;5074419;28;20123;-70
2022/10/05 10:12:43;;;;;;;3.47;1.42;;;19.80;87.00;;;;;;5074258;28;20108;-70
2022/10/05 10:15:18;;;;;;;6.18;2.42;;;19.90;86.10;;;;;;5073177;28;20036;-70
2022/10/05 10:18:00;;;;;;;8.75;1.58;;;19.90;87.00;;;;;;5074149;28;20107;-70
2022/10/05 10:21:02;;;;;;;3.85;1.50;;;19.90;86.20;;;;;;5074470;28;20413;-70
2022/10/05 10:23:42;;;;;;;13.57;5.70;;;19.90;86.70;;;;;;5073472;28;20111;-70
2022/10/05 10:26:47;;;;;;;6.75;2.08;;;20.00;86.20;;;;;;5074025;28;20601;-70
2022/10/05 10:29:33;;;;;;;5.25;1.85;;;20.00;86.00;;;;;;5074396;28;20024;-70
2022/10/05 10:32:16;;;;;;;12.77;5.15;;;20.00;85.70;;;;;;5073847;28;20028;-70
2022/10/05 10:35:02;;;;;;;12.55;5.97;;;20.10;85.50;;;;;;5074164;28;20445;-70
2022/10/05 10:37:56;;;;;;;9.70;4.15;;;20.10;85.80;;;;;;5073934;28;20024;-68
2022/10/05 10:40:33;;;;;;;6.82;2.35;;;20.10;85.10;;;;;;5073892;28;20020;-70
2022/10/05 10:43:33;;;;;;;6.70;2.42;;;20.20;84.50;;;;;;5074230;28;20081;-70
2022/10/05 10:46:16;;;;;;;6.55;2.67;;;20.30;83.80;;;;;;5073910;28;20043;-70
2022/10/05 10:48:56;;;;;;;5.57;2.10;;;20.30;83.70;;;;;;5072999;28;20070;-69
2022/10/05 10:52:15;;;;;;;7.30;2.20;;;20.30;84.00;;;;;;5073636;28;20036;-71
2022/10/05 10:55:09;;;;;;;6.53;1.80;;;20.20;84.10;;;;;;5068439;28;20214;-71
2022/10/05 10:58:12;;;;;;;3.38;1.60;;;20.10;83.90;;;;;;5070658;28;20078;-71
2022/10/05 11:01:00;;;;;;;3.55;1.70;;;20.10;84.20;;;;;;5070883;28;20143;-71
2022/10/05 11:04:01;;;;;;;4.35;1.95;;;20.00;84.00;;;;;;5072332;28;20036;-70
2022/10/05 11:07:11;;;;;;;4.45;2.00;;;19.90;84.20;;;;;;5073600;28;20123;-70
2022/10/05 11:10:02;;;;;;;6.40;2.40;;;19.90;84.30;;;;;;5070876;28;20029;-70
2022/10/05 11:12:56;;;;;;;4.38;1.95;;;19.90;83.00;;;;;;5073253;28;20482;-71
2022/10/05 11:15:46;;;;;;;7.57;2.40;;;19.90;83.20;;;;;;5073324;28;20562;-71
2022/10/05 11:18:35;;;;;;;3.13;1.80;;;19.90;83.30;;;;;;5073226;28;20038;-70
2022/10/05 11:21:36;;;;;;;5.68;2.10;;;19.90;83.20;;;;;;5073209;28;20134;-70
2022/10/05 11:24:16;;;;;;;6.80;2.45;;;19.90;82.60;;;;;;5072256;28;20170;-70
2022/10/05 11:27:09;;;;;;;4.65;2.50;;;20.00;83.00;;;;;;5073037;28;20032;-71
2022/10/05 11:30:00;;;;;;;4.80;2.40;;;20.00;81.70;;;;;;5073141;28;20107;-71
2022/10/05 11:33:05;;;;;;;5.68;2.03;;;20.10;81.60;;;;;;5072534;28;20085;-71
2022/10/05 11:35:49;;;;;;;6.82;3.15;;;20.20;82.10;;;;;;5073128;28;20033;-71
2022/10/05 11:38:53;;;;;;;5.30;2.33;;;20.30;81.90;;;;;;5072470;28;20025;-71
2022/10/05 11:41:40;;;;;;;7.47;2.60;;;20.50;80.80;;;;;;5073162;28;20036;-70
2022/10/05 11:44:42;;;;;;;4.65;2.53;;;20.70;79.90;;;;;;5072861;28;20385;-70
2022/10/05 11:47:27;;;;;;;7.05;2.65;;;20.80;79.00;;;;;;5072884;28;20039;-70
2022/10/05 11:50:24;;;;;;;5.18;2.20;;;20.80;78.80;;;;;;5072762;28;20029;-70
2022/10/05 11:53:05;;;;;;;4.03;2.15;;;21.00;78.60;;;;;;5073120;28;20044;-71
2022/10/05 13:08:21;;;;;;;4.22;1.98;;;20.50;80.50;;;;;;5070406;28;20091;-69
2022/10/05 13:10:54;;;;;;;8.63;1.98;;;20.40;80.50;;;;;;5094694;28;20127;-69
2022/10/05 13:13:41;;;;;;;6.85;2.33;;;20.40;80.90;;;;;;5094989;28;20447;-69
2022/10/05 13:16:27;;;;;;;6.00;2.10;;;20.40;81.50;;;;;;5095915;28;20040;-69
2022/10/05 13:19:25;;;;;;;5.70;2.25;;;20.40;82.20;;;;;;5095921;28;20083;-69
2022/10/05 13:22:02;;;;;;;6.97;2.20;;;20.40;82.60;;;;;;5059440;28;20114;-68
2022/10/05 13:24:37;;;;;;;7.32;2.10;;;20.40;82.90;;;;;;5095802;28;20537;-71
2022/10/05 13:27:26;;;;;;;5.85;2.60;;;20.40;83.30;;;;;;5095780;28;20040;-69
2022/10/05 13:30:01;;;;;;;6.38;2.08;;;20.40;82.90;;;;;;5095409;28;20470;-69
2022/10/05 13:32:35;;;;;;;5.35;1.90;;;20.40;83.10;;;;;;5095759;28;20032;-69
2022/10/05 13:35:01;;;;;;;7.85;2.53;;;20.40;83.30;;;;;;5095308;28;20039;-69
2022/10/05 13:37:45;;;;;;;7.28;1.92;;;20.40;83.90;;;;;;5095297;28;20032;-69
2022/10/05 13:40:22;;;;;;;5.53;1.80;;;20.40;83.50;;;;;;5095149;28;20052;-69
2022/10/05 13:43:09;;;;;;;5.75;1.90;;;20.40;83.80;;;;;;5095301;28;20485;-69
2022/10/05 13:45:48;;;;;;;5.60;1.80;;;20.40;84.20;;;;;;5095033;28;20501;-69
2022/10/05 13:48:51;;;;;;;7.53;2.47;;;20.40;84.20;;;;;;5095071;28;20028;-69
2022/10/05 13:51:40;;;;;;;7.78;1.65;;;20.40;84.30;;;;;;5095371;28;20032;-70
2022/10/05 13:54:20;;;;;;;8.77;1.88;;;20.40;84.60;;;;;;5095271;28;20081;-69
2022/10/05 13:57:16;;;;;;;9.52;2.28;;;20.40;84.50;;;;;;5094913;28;20123;-69
2022/10/05 13:59:44;;;;;;;6.78;2.08;;;20.40;84.50;;;;;;5078763;28;20413;-69
2022/10/05 14:02:18;;;;;;;10.60;2.08;;;20.50;84.60;;;;;;5095079;28;20074;-67
2022/10/05 14:04:49;;;;;;;5.93;1.80;;;20.50;84.40;;;;;;5094865;28;20394;-69
2022/10/05 14:07:36;;;;;;;5.78;1.67;;;20.50;84.60;;;;;;5094937;28;20115;-69
2022/10/05 14:10:09;;;;;;;7.57;1.83;;;20.50;84.20;;;;;;5094822;28;20101;-69
2022/10/05 14:12:44;;;;;;;5.35;2.08;;;20.50;84.30;;;;;;5094663;28;20032;-69
2022/10/05 14:15:21;;;;;;;7.78;2.00;;;20.50;85.00;;;;;;5094281;28;20118;-70
2022/10/05 14:17:47;;;;;;;5.70;1.90;;;20.60;85.00;;;;;;5094587;28;20034;-69
2022/10/05 14:20:19;;;;;;;7.68;1.85;;;20.60;84.80;;;;;;5094877;28;20047;-69
2022/10/05 14:22:51;;;;;;;7.40;2.25;;;20.60;84.60;;;;;;5094629;28;20083;-69
2022/10/05 14:25:18;;;;;;;;;;;20.60;84.50;;;;;;5093752;28;20055;-69
2022/10/05 14:28:02;;;;;;;8.57;1.95;;;20.60;84.40;;;;;;5093388;28;19907;-68
2022/10/05 14:30:30;;;;;;;10.95;1.80;;;20.70;84.30;;;;;;5093246;28;20056;-69
2022/10/05 14:33:16;;;;;;;7.07;2.03;;;20.70;84.20;;;;;;5093277;28;20398;-69
2022/10/05 14:35:56;;;;;;;10.30;2.28;;;20.70;84.30;;;;;;5092657;28;20043;-69
2022/10/05 14:38:30;;;;;;;7.55;2.33;;;20.60;83.80;;;;;;5107507;28;20035;-68
2022/10/05 14:41:26;;;;;;;8.00;1.92;;;20.70;83.90;;;;;;5113199;28;20031;-68
2022/10/05 14:43:56;;;;;;;12.55;2.72;;;20.70;84.20;;;;;;5108614;28;20038;-69
2022/10/05 14:46:27;;;;;;;4.60;2.10;;;20.70;84.20;;;;;;5113183;28;20481;-69
2022/10/05 14:49:34;;;;;;;4.70;1.75;;;20.70;84.20;;;;;;5112993;28;20030;-69
2022/10/05 14:52:27;;;;;;;8.27;1.70;;;20.70;83.80;;;;;;5113000;28;20485;-69
2022/10/05 14:55:01;;;;;;;6.20;1.88;;;20.70;83.80;;;;;;5112937;28;20074;-69
2022/10/05 14:57:38;;;;;;;8.18;1.77;;;20.70;83.50;;;;;;5112923;28;20496;-69
2022/10/05 15:00:15;;;;;;;5.05;2.00;;;20.80;83.40;;;;;;5113232;28;20546;-68
2022/10/05 15:02:58;;;;;;;4.40;2.00;;;20.70;83.80;;;;;;5113952;28;20409;-69
2022/10/05 15:05:52;;;;;;;5.00;1.50;;;20.70;84.50;;;;;;5113625;28;20044;-69
2022/10/05 15:08:34;;;;;;;7.38;1.75;;;20.80;85.30;;;;;;5113933;28;20500;-69
2022/10/05 15:11:10;;;;;;;6.32;1.85;;;20.70;85.00;;;;;;5114065;28;20031;-69
2022/10/05 15:13:42;;;;;;;6.60;1.95;;;20.70;84.90;;;;;;5113689;28;20067;-69
2022/10/05 15:16:18;;;;;;;5.07;1.70;;;20.70;85.30;;;;;;5113850;28;20043;-69
2022/10/05 15:18:50;;;;;;;6.45;1.90;;;20.70;84.90;;;;;;5113623;28;20024;-68
2022/10/05 15:21:25;;;;;;;2.97;1.35;;;20.70;85.10;;;;;;5113559;28;20401;-69